Time;durP1;ratioP1;P1;durP2;ratioP2;P2;SDS_P1;SDS_P2;PMS_P1;PMS_P2;Temp;Humidity;BMP_temperature;BMP_pressure;BME280_temperature;BME280_humidity;BME280_pressure;Samples;Min_cycle;Max_cycle;Signal;HPM_P1;HPM_P2
2021/07/12 00:00:33;;;;;;;2.92;2.22;;;;;;;;;;5046681;28;20031;-81
2021/07/12 00:02:59;;;;;;;3.03;2.55;;;;;;;;;;5043011;28;20040;-81
2021/07/12 00:05:26;;;;;;;3.25;2.50;;;;;;;;;;5041318;28;20396;-81
2021/07/12 00:07:51;;;;;;;2.28;1.95;;;;;;;;;;5049046;28;20476;-81
2021/07/12 00:10:19;;;;;;;3.00;2.22;;;;;;;;;;5045769;28;20021;-81
2021/07/12 00:12:45;;;;;;;3.33;2.38;;;;;;;;;;5045781;28;20105;-81
2021/07/12 00:15:13;;;;;;;2.40;2.20;;;;;;;;;;5045396;28;20033;-81
2021/07/12 00:17:38;;;;;;;4.82;2.22;;;;;;;;;;5039173;28;20091;-81
2021/07/12 00:20:07;;;;;;;4.80;2.33;;;;;;;;;;5041197;28;20028;-82
2021/07/12 00:22:32;;;;;;;2.78;2.25;;;;;;;;;;5046916;28;20021;-81
2021/07/12 00:24:58;;;;;;;2.53;2.33;;;;;;;;;;5046233;28;20029;-81
2021/07/12 00:27:23;;;;;;;2.88;2.25;;;;;;;;;;5043732;28;20374;-81
2021/07/12 00:29:49;;;;;;;4.95;2.53;;;;;;;;;;5043368;28;20025;-81
2021/07/12 00:32:14;;;;;;;5.28;2.40;;;;;;;;;;5043307;28;20025;-81
2021/07/12 00:34:40;;;;;;;4.07;2.22;;;;;;;;;;5047775;28;20039;-81
2021/07/12 00:37:05;;;;;;;3.75;2.22;;;;;;;;;;5044138;28;20468;-81
2021/07/12 00:39:31;;;;;;;3.22;2.40;;;;;;;;;;5047199;28;20431;-81
2021/07/12 00:41:56;;;;;;;2.45;2.25;;;;;;;;;;5042323;28;20492;-81
2021/07/12 00:44:22;;;;;;;3.78;2.53;;;;;;;;;;5042183;28;20044;-81
2021/07/12 00:46:47;;;;;;;2.63;2.00;;;;;;;;;;5046605;28;20109;-81
2021/07/12 00:49:13;;;;;;;2.50;2.20;;;;;;;;;;5047846;28;20036;-81
2021/07/12 00:51:38;;;;;;;3.45;2.20;;;;;;;;;;5047246;28;20032;-82
2021/07/12 00:54:04;;;;;;;2.42;2.17;;;;;;;;;;5049745;28;20368;-81
2021/07/12 00:56:30;;;;;;;4.70;1.95;;;;;;;;;;5045314;28;20221;-81
2021/07/12 00:58:55;;;;;;;5.28;2.42;;;;;;;;;;5050765;28;20036;-81
2021/07/12 01:01:21;;;;;;;3.97;2.42;;;;;;;;;;5064313;28;20103;-81
2021/07/12 01:03:47;;;;;;;3.83;2.35;;;;;;;;;;5042210;28;20037;-81
2021/07/12 01:06:13;;;;;;;14.93;3.10;;;;;;;;;;5051184;28;20090;-81
2021/07/12 01:08:39;;;;;;;2.60;2.40;;;;;;;;;;5044417;28;20063;-81
2021/07/12 01:11:23;;;;;;;4.40;2.65;;;;;;;;;;5043976;28;20092;-81
2021/07/12 01:14:45;;;;;;;3.05;2.25;;;;;;;;;;5048240;28;20040;-81
2021/07/12 01:17:32;;;;;;;2.85;2.20;;;;;;;;;;5062829;28;20048;-81
2021/07/12 01:20:07;;;;;;;3.65;2.38;;;;;;;;;;5061735;28;20028;-81
2021/07/12 01:22:57;;;;;;;3.67;2.30;;;;;;;;;;5043062;28;20400;-82
2021/07/12 01:25:57;;;;;;;2.50;2.05;;;;;;;;;;5046520;28;20025;-81
2021/07/12 01:29:02;;;;;;;3.25;2.05;;;;;;;;;;5046355;28;20059;-81
2021/07/12 01:31:48;;;;;;;2.70;2.20;;;;;;;;;;5047524;28;20029;-81
2021/07/12 01:34:38;;;;;;;3.80;2.20;;;;;;;;;;5049221;28;20032;-81
2021/07/12 01:37:09;;;;;;;2.42;2.20;;;;;;;;;;5049722;28;20045;-81
2021/07/12 01:39:43;;;;;;;3.00;2.28;;;;;;;;;;5047886;28;20151;-81
2021/07/12 01:42:14;;;;;;;3.63;1.92;;;;;;;;;;5048276;28;20380;-81
2021/07/12 01:44:48;;;;;;;4.80;2.58;;;;;;;;;;5045152;28;20044;-81
2021/07/12 01:47:47;;;;;;;5.88;2.60;;;;;;;;;;5048065;28;20029;-81
2021/07/12 01:50:21;;;;;;;4.60;2.60;;;;;;;;;;5048244;28;20041;-81
2021/07/12 01:53:09;;;;;;;2.60;2.40;;;;;;;;;;5050409;28;20068;-81
2021/07/12 01:55:48;;;;;;;8.65;3.38;;;;;;;;;;5045963;28;20495;-81
2021/07/12 01:58:32;;;;;;;4.10;2.78;;;;;;;;;;5042299;28;20071;-81
2021/07/12 02:00:59;;;;;;;3.20;2.80;;;;;;;;;;5059539;28;20064;-82
2021/07/12 02:03:27;;;;;;;3.20;2.65;;;;;;;;;;5048589;28;20033;-81
2021/07/12 02:05:56;;;;;;;4.15;2.50;;;;;;;;;;5049710;28;20033;-81
2021/07/12 02:08:22;;;;;;;;;;;;;;;;;;5043708;28;20060;-81
2021/07/12 02:10:50;;;;;;;3.90;3.03;;;;;;;;;;5045221;28;19971;-81
2021/07/12 02:13:17;;;;;;;5.90;3.45;;;;;;;;;;5051916;28;20055;-81
2021/07/12 02:15:47;;;;;;;6.88;3.08;;;;;;;;;;5045508;28;20038;-81
2021/07/12 02:18:15;;;;;;;4.50;2.97;;;;;;;;;;5048418;28;20025;-81
2021/07/12 02:20:43;;;;;;;6.38;2.85;;;;;;;;;;5047436;28;20045;-81
2021/07/12 02:23:10;;;;;;;5.15;2.90;;;;;;;;;;5044850;28;20025;-81
2021/07/12 02:25:37;;;;;;;3.33;2.80;;;;;;;;;;5046335;28;20039;-82
2021/07/12 02:28:04;;;;;;;4.80;2.78;;;;;;;;;;5048889;28;20061;-81
2021/07/12 02:30:29;;;;;;;3.08;2.80;;;;;;;;;;5049116;28;20096;-81
2021/07/12 02:32:56;;;;;;;4.28;2.70;;;;;;;;;;5046334;28;20093;-81
2021/07/12 02:35:21;;;;;;;3.30;2.63;;;;;;;;;;5044204;28;20048;-81
2021/07/12 02:37:49;;;;;;;3.90;2.80;;;;;;;;;;5046486;28;20017;-82
2021/07/12 02:40:17;;;;;;;3.53;2.90;;;;;;;;;;5044024;28;20025;-81
2021/07/12 02:42:48;;;;;;;4.00;2.83;;;;;;;;;;5049110;28;20028;-80
2021/07/12 02:45:17;;;;;;;7.20;2.95;;;;;;;;;;5046274;28;20020;-80
2021/07/12 02:47:42;;;;;;;4.80;2.63;;;;;;;;;;5048928;28;20028;-81
2021/07/12 02:50:10;;;;;;;4.07;2.70;;;;;;;;;;5046943;28;20082;-81
2021/07/12 02:53:21;;;;;;;3.60;2.70;;;;;;;;;;5047555;28;20493;-81
2021/07/12 02:55:47;;;;;;;2.97;2.78;;;;;;;;;;5044394;28;20051;-80
2021/07/12 02:58:12;;;;;;;4.28;2.80;;;;;;;;;;5043791;28;20029;-80
2021/07/12 03:00:38;;;;;;;6.32;3.90;;;;;;;;;;5043211;28;20113;-80
2021/07/12 03:03:03;;;;;;;5.45;3.60;;;;;;;;;;5048239;28;20488;-80
2021/07/12 03:05:29;;;;;;;3.30;2.38;;;;;;;;;;5047040;28;20115;-81
2021/07/12 03:08:04;;;;;;;3.55;2.30;;;;;;;;;;5047336;28;20306;-80
2021/07/12 03:10:32;;;;;;;6.72;2.42;;;;;;;;;;5053287;28;20509;-81
2021/07/12 03:13:05;;;;;;;3.92;2.90;;;;;;;;;;5044714;28;20076;-82
2021/07/12 03:15:44;;;;;;;4.10;2.63;;;;;;;;;;5045748;28;20063;-81
2021/07/12 03:18:31;;;;;;;7.20;2.80;;;;;;;;;;5049966;28;20403;-81
2021/07/12 03:20:59;;;;;;;4.32;2.60;;;;;;;;;;5046461;28;20040;-81
2021/07/12 03:23:26;;;;;;;3.05;2.40;;;;;;;;;;5048291;28;20036;-81
2021/07/12 03:25:56;;;;;;;4.78;2.50;;;;;;;;;;5044184;28;20047;-81
2021/07/12 03:28:22;;;;;;;4.25;2.72;;;;;;;;;;5045008;28;20029;-81
2021/07/12 03:30:49;;;;;;;3.80;2.55;;;;;;;;;;5042072;28;20681;-81
2021/07/12 03:33:16;;;;;;;3.47;2.53;;;;;;;;;;5047710;28;20453;-81
2021/07/12 03:35:44;;;;;;;3.30;2.78;;;;;;;;;;5047901;28;20028;-81
2021/07/12 03:38:15;;;;;;;4.45;2.90;;;;;;;;;;5047416;28;20056;-81
2021/07/12 03:40:41;;;;;;;4.75;2.50;;;;;;;;;;5044340;28;20039;-82
2021/07/12 03:43:09;;;;;;;3.33;2.53;;;;;;;;;;5047827;28;20021;-81
2021/07/12 03:45:35;;;;;;;4.38;2.75;;;;;;;;;;5046436;28;20024;-81
2021/07/12 03:48:00;;;;;;;5.15;4.05;;;;;;;;;;5040965;28;20549;-80
2021/07/12 03:50:28;;;;;;;5.07;3.08;;;;;;;;;;5046460;28;20068;-81
2021/07/12 03:52:54;;;;;;;6.75;3.30;;;;;;;;;;5043804;28;20017;-81
2021/07/12 03:55:23;;;;;;;3.42;2.80;;;;;;;;;;5043051;28;20078;-81
2021/07/12 03:57:50;;;;;;;3.92;2.63;;;;;;;;;;5047661;28;20036;-81
2021/07/12 04:00:18;;;;;;;3.72;2.90;;;;;;;;;;5043484;28;20366;-81
2021/07/12 04:02:45;;;;;;;4.82;2.95;;;;;;;;;;5042269;28;20532;-82
2021/07/12 04:05:11;;;;;;;3.83;2.70;;;;;;;;;;5043611;28;20373;-81
2021/07/12 04:07:38;;;;;;;7.05;2.70;;;;;;;;;;5040002;28;20025;-81
2021/07/12 04:10:05;;;;;;;5.65;2.95;;;;;;;;;;5043425;28;20025;-81
2021/07/12 04:12:31;;;;;;;4.38;2.75;;;;;;;;;;5045751;28;20211;-81
2021/07/12 04:14:58;;;;;;;3.58;3.00;;;;;;;;;;5048717;28;20576;-81
2021/07/12 04:17:24;;;;;;;3.25;2.75;;;;;;;;;;5045880;28;20033;-80
2021/07/12 04:19:50;;;;;;;7.88;3.30;;;;;;;;;;5043047;28;20035;-81
2021/07/12 04:22:16;;;;;;;3.83;3.33;;;;;;;;;;5050582;28;20085;-81
2021/07/12 04:24:41;;;;;;;5.10;3.00;;;;;;;;;;5050401;28;20196;-81
2021/07/12 04:27:07;;;;;;;4.55;3.20;;;;;;;;;;5044120;28;20036;-81
2021/07/12 04:29:32;;;;;;;4.85;3.03;;;;;;;;;;5047544;28;20071;-81
2021/07/12 04:32:00;;;;;;;4.38;3.20;;;;;;;;;;5051233;28;20037;-81
2021/07/12 04:34:27;;;;;;;5.97;3.28;;;;;;;;;;5045646;28;20565;-81
2021/07/12 04:36:52;;;;;;;5.72;3.33;;;;;;;;;;5046862;28;20030;-81
2021/07/12 04:39:18;;;;;;;7.30;3.60;;;;;;;;;;5051753;28;20025;-81
2021/07/12 04:41:43;;;;;;;5.53;3.50;;;;;;;;;;5040114;28;20091;-81
2021/07/12 04:44:09;;;;;;;4.53;3.80;;;;;;;;;;5049309;28;20425;-81
2021/07/12 04:46:34;;;;;;;6.97;3.17;;;;;;;;;;5048283;28;20550;-81
2021/07/12 04:49:00;;;;;;;4.05;2.95;;;;;;;;;;5050614;28;20029;-81
2021/07/12 04:51:25;;;;;;;8.93;3.15;;;;;;;;;;5046756;28;20022;-81
2021/07/12 04:53:50;;;;;;;4.22;2.95;;;;;;;;;;5047465;28;20530;-81
2021/07/12 04:56:16;;;;;;;7.65;3.20;;;;;;;;;;5051037;28;20031;-81
2021/07/12 04:58:44;;;;;;;3.47;2.90;;;;;;;;;;5047928;28;20025;-81
2021/07/12 05:01:10;;;;;;;7.20;3.33;;;;;;;;;;5043318;28;20391;-81
2021/07/12 05:03:37;;;;;;;3.85;2.97;;;;;;;;;;5046305;28;20120;-82
2021/07/12 05:06:03;;;;;;;4.30;3.33;;;;;;;;;;5044546;28;20271;-81
2021/07/12 05:08:28;;;;;;;4.25;2.88;;;;;;;;;;5045343;28;20401;-81
2021/07/12 05:10:54;;;;;;;3.38;2.88;;;;;;;;;;5047412;28;20020;-81
2021/07/12 05:13:20;;;;;;;3.83;3.20;;;;;;;;;;5047274;28;20032;-82
2021/07/12 05:15:45;;;;;;;4.97;3.20;;;;;;;;;;5050163;28;20032;-81
2021/07/12 05:18:11;;;;;;;6.57;3.80;;;;;;;;;;5047354;28;20102;-82
2021/07/12 05:20:36;;;;;;;5.22;3.47;;;;;;;;;;5047518;28;20068;-82
2021/07/12 05:23:02;;;;;;;5.47;3.60;;;;;;;;;;5047953;28;20036;-82
2021/07/12 05:25:28;;;;;;;4.60;3.47;;;;;;;;;;5046908;28;20040;-81
2021/07/12 05:27:54;;;;;;;5.55;3.40;;;;;;;;;;5049562;28;20017;-81
2021/07/12 05:30:19;;;;;;;5.53;4.45;;;;;;;;;;5044840;28;20040;-82
2021/07/12 05:32:45;;;;;;;6.90;4.97;;;;;;;;;;5043617;28;20492;-82
2021/07/12 05:35:11;;;;;;;9.90;5.65;;;;;;;;;;5047371;28;20385;-81
2021/07/12 05:37:37;;;;;;;6.32;5.38;;;;;;;;;;5048095;28;20046;-81
2021/07/12 05:40:05;;;;;;;6.05;5.15;;;;;;;;;;5046470;28;20033;-81
2021/07/12 05:42:30;;;;;;;7.30;5.57;;;;;;;;;;5047074;28;20029;-80
2021/07/12 05:44:56;;;;;;;8.30;5.25;;;;;;;;;;5052023;28;20025;-85
2021/07/12 05:47:21;;;;;;;6.70;5.80;;;;;;;;;;5048598;28;20025;-86
2021/07/12 05:49:47;;;;;;;8.57;5.63;;;;;;;;;;5035992;28;20039;-85
2021/07/12 05:52:12;;;;;;;7.03;5.32;;;;;;;;;;5046399;28;20036;-85
2021/07/12 05:54:38;;;;;;;6.07;5.05;;;;;;;;;;5048045;28;20503;-84
2021/07/12 05:57:03;;;;;;;7.32;5.45;;;;;;;;;;5049768;28;20032;-85
2021/07/12 05:59:29;;;;;;;6.55;4.82;;;;;;;;;;5046692;28;20032;-86
2021/07/12 06:01:54;;;;;;;7.07;4.95;;;;;;;;;;5043519;28;20414;-85
2021/07/12 06:04:20;;;;;;;6.78;4.70;;;;;;;;;;5043958;28;20033;-85
2021/07/12 06:06:45;;;;;;;6.47;4.85;;;;;;;;;;5045375;28;20025;-87
2021/07/12 06:09:11;;;;;;;5.95;5.18;;;;;;;;;;5043321;28;20021;-86
2021/07/12 06:11:36;;;;;;;5.47;4.85;;;;;;;;;;5044272;28;20082;-86
2021/07/12 06:14:02;;;;;;;6.82;5.70;;;;;;;;;;5049935;28;20352;-80
2021/07/12 06:16:27;;;;;;;8.18;5.03;;;;;;;;;;5047195;28;20032;-80
2021/07/12 06:18:53;;;;;;;7.65;5.57;;;;;;;;;;5045362;28;20028;-80
2021/07/12 06:21:18;;;;;;;7.32;5.10;;;;;;;;;;5044418;28;20031;-80
2021/07/12 06:23:44;;;;;;;8.15;5.20;;;;;;;;;;5047115;28;20033;-80
2021/07/12 06:26:09;;;;;;;7.80;5.45;;;;;;;;;;5042776;28;20029;-80
2021/07/12 06:28:35;;;;;;;6.63;5.30;;;;;;;;;;5043612;28;20448;-80
2021/07/12 06:31:00;;;;;;;5.50;4.90;;;;;;;;;;5041008;28;20112;-80
2021/07/12 06:33:28;;;;;;;8.10;5.47;;;;;;;;;;5040820;28;20025;-80
2021/07/12 06:35:54;;;;;;;5.25;4.55;;;;;;;;;;5045745;28;20020;-81
2021/07/12 06:38:20;;;;;;;5.85;4.70;;;;;;;;;;5039752;28;20039;-81
2021/07/12 06:40:45;;;;;;;4.82;4.20;;;;;;;;;;5040831;28;20032;-80
2021/07/12 06:43:10;;;;;;;5.78;4.03;;;;;;;;;;5045175;28;20017;-84
2021/07/12 06:45:38;;;;;;;6.22;4.32;;;;;;;;;;5044394;28;20028;-80
2021/07/12 06:48:04;;;;;;;5.68;3.97;;;;;;;;;;5041323;28;20438;-80
2021/07/12 06:50:29;;;;;;;5.45;4.88;;;;;;;;;;5040873;28;20102;-80
2021/07/12 06:52:55;;;;;;;5.95;4.85;;;;;;;;;;5041954;28;20044;-80
2021/07/12 06:55:21;;;;;;;4.30;3.90;;;;;;;;;;5046004;28;20063;-80
2021/07/12 06:57:46;;;;;;;5.45;4.13;;;;;;;;;;5043807;28;20844;-80
2021/07/12 07:00:12;;;;;;;4.35;3.83;;;;;;;;;;5043317;28;20025;-80
2021/07/12 07:02:38;;;;;;;4.85;3.75;;;;;;;;;;5045266;28;21871;-80
2021/07/12 07:05:05;;;;;;;4.57;3.95;;;;;;;;;;5032525;28;20113;-80
2021/07/12 07:07:31;;;;;;;6.63;4.00;;;;;;;;;;5055988;28;20033;-80
2021/07/12 07:09:56;;;;;;;5.00;4.15;;;;;;;;;;5042007;28;20103;-80
2021/07/12 07:12:22;;;;;;;4.18;3.72;;;;;;;;;;5042150;28;20035;-80
2021/07/12 07:14:47;;;;;;;5.22;3.67;;;;;;;;;;5040356;28;20029;-80
2021/07/12 07:17:13;;;;;;;3.90;3.50;;;;;;;;;;5041399;28;20021;-80
2021/07/12 07:19:38;;;;;;;4.03;3.63;;;;;;;;;;5039333;28;20044;-82
2021/07/12 07:22:04;;;;;;;4.88;3.25;;;;;;;;;;5043896;28;20025;-79
2021/07/12 07:24:29;;;;;;;4.53;3.40;;;;;;;;;;5041736;28;20035;-79
2021/07/12 07:26:55;;;;;;;4.57;3.67;;;;;;;;;;5040756;28;20032;-79
2021/07/12 07:29:21;;;;;;;4.57;3.50;;;;;;;;;;5036598;28;20029;-80
2021/07/12 07:31:47;;;;;;;4.10;3.63;;;;;;;;;;5037790;28;20021;-80
2021/07/12 07:34:14;;;;;;;4.20;3.80;;;;;;;;;;5038607;28;20056;-80
2021/07/12 07:36:40;;;;;;;5.45;3.60;;;;;;;;;;5040207;28;20041;-79
2021/07/12 07:39:06;;;;;;;3.95;3.53;;;;;;;;;;5038118;28;20032;-79
2021/07/12 07:41:33;;;;;;;5.43;3.88;;;;;;;;;;5037258;28;20029;-79
2021/07/12 07:43:59;;;;;;;5.40;3.78;;;;;;;;;;5045596;28;20052;-80
2021/07/12 07:46:24;;;;;;;3.95;3.55;;;;;;;;;;5043229;28;20039;-80
2021/07/12 07:48:50;;;;;;;4.82;3.53;;;;;;;;;;5043158;28;20025;-80
2021/07/12 07:51:15;;;;;;;3.90;2.83;;;;;;;;;;5039396;28;20033;-80
2021/07/12 07:53:41;;;;;;;4.72;2.92;;;;;;;;;;5043023;28;20025;-80
2021/07/12 07:56:06;;;;;;;4.78;3.40;;;;;;;;;;5039586;28;20120;-78
2021/07/12 07:58:33;;;;;;;4.90;4.00;;;;;;;;;;5043472;28;20036;-78
2021/07/12 08:00:59;;;;;;;3.08;2.03;;;;;;;;;;5041800;28;20618;-79
2021/07/12 08:03:25;;;;;;;3.78;2.47;;;;;;;;;;5038660;28;20020;-79
2021/07/12 08:05:50;;;;;;;2.45;2.22;;;;;;;;;;5042993;28;20031;-81
2021/07/12 08:08:16;;;;;;;2.60;2.20;;;;;;;;;;5042639;28;20132;-80
2021/07/12 08:10:41;;;;;;;2.25;2.05;;;;;;;;;;5042289;28;20036;-84
2021/07/12 08:13:09;;;;;;;3.25;1.80;;;;;;;;;;5039008;28;20111;-81
2021/07/12 08:15:36;;;;;;;2.00;1.73;;;;;;;;;;5039457;28;20021;-79
2021/07/12 08:18:03;;;;;;;3.20;2.13;;;;;;;;;;5035869;28;20036;-80
2021/07/12 08:20:28;;;;;;;2.35;1.85;;;;;;;;;;5037379;28;20030;-78
2021/07/12 08:22:54;;;;;;;2.15;1.95;;;;;;;;;;5040239;28;20027;-80
2021/07/12 08:25:21;;;;;;;2.38;2.10;;;;;;;;;;5039529;28;20151;-81
2021/07/12 08:27:47;;;;;;;2.10;1.88;;;;;;;;;;5044939;28;20534;-79
2021/07/12 08:30:15;;;;;;;1.67;1.58;;;;;;;;;;5038905;28;20440;-79
2021/07/12 08:32:41;;;;;;;1.70;1.60;;;;;;;;;;5041764;28;20037;-78
2021/07/12 08:35:08;;;;;;;1.92;1.80;;;;;;;;;;5035726;28;20704;-80
2021/07/12 08:37:33;;;;;;;1.83;1.73;;;;;;;;;;5038908;28;20025;-79
2021/07/12 08:39:59;;;;;;;2.85;1.70;;;;;;;;;;5041269;28;20460;-79
2021/07/12 08:42:26;;;;;;;2.67;2.13;;;;;;;;;;5044359;28;20105;-79
2021/07/12 08:44:51;;;;;;;4.78;2.13;;;;;;;;;;5034083;28;20028;-79
2021/07/12 08:47:17;;;;;;;5.57;1.88;;;;;;;;;;5036708;28;20025;-79
2021/07/12 08:49:43;;;;;;;1.92;1.75;;;;;;;;;;5042023;28;20033;-79
2021/07/12 08:52:08;;;;;;;3.25;1.83;;;;;;;;;;5040994;28;20493;-84
2021/07/12 08:54:37;;;;;;;4.22;1.88;;;;;;;;;;5043252;28;20108;-84
2021/07/12 08:57:02;;;;;;;2.43;2.17;;;;;;;;;;5040982;28;20393;-82
2021/07/12 08:59:36;;;;;;;2.30;1.80;;;;;;;;;;5041711;28;20271;-80
2021/07/12 09:02:05;;;;;;;2.17;1.77;;;;;;;;;;5036459;28;20024;-79
2021/07/12 09:04:31;;;;;;;2.03;1.83;;;;;;;;;;5039518;28;20029;-79
2021/07/12 09:07:14;;;;;;;2.25;2.05;;;;;;;;;;5039240;28;20032;-79
2021/07/12 09:09:40;;;;;;;1.88;1.67;;;;;;;;;;5046618;28;20234;-79
2021/07/12 09:12:36;;;;;;;1.80;1.70;;;;;;;;;;5049502;28;20544;-79
2021/07/12 09:15:05;;;;;;;3.58;1.90;;;;;;;;;;5046145;28;20021;-79
2021/07/12 09:17:40;;;;;;;2.30;2.10;;;;;;;;;;5044507;28;20573;-79
2021/07/12 09:20:08;;;;;;;4.93;1.98;;;;;;;;;;5045379;28;20037;-79
2021/07/12 09:22:38;;;;;;;1.88;1.50;;;;;;;;;;5047833;28;20021;-79
2021/07/12 09:25:10;;;;;;;1.90;1.75;;;;;;;;;;5046876;28;20044;-79
2021/07/12 09:27:38;;;;;;;2.47;2.00;;;;;;;;;;5046897;28;20036;-78
2021/07/12 09:30:03;;;;;;;2.15;1.90;;;;;;;;;;5049526;28;20032;-87
2021/07/12 09:32:30;;;;;;;2.00;1.80;;;;;;;;;;5044033;28;20014;-84
2021/07/12 09:35:01;;;;;;;2.35;2.00;;;;;;;;;;5047736;28;20021;-84
2021/07/12 09:37:28;;;;;;;2.85;1.80;;;;;;;;;;5046365;28;20040;-83
2021/07/12 09:39:55;;;;;;;3.17;2.10;;;;;;;;;;5045236;28;20031;-81
2021/07/12 09:42:31;;;;;;;3.25;2.38;;;;;;;;;;5048046;28;20029;-81
2021/07/12 09:45:00;;;;;;;2.80;2.20;;;;;;;;;;5045683;28;20029;-81
2021/07/12 09:47:30;;;;;;;;;;;;;;;;;;5062788;28;20535;-81
2021/07/12 09:50:15;;;;;;;3.45;1.92;;;;;;;;;;5050224;28;19921;-80
2021/07/12 09:52:47;;;;;;;2.13;1.92;;;;;;;;;;5045799;28;20037;-80
2021/07/12 09:55:25;;;;;;;2.05;1.85;;;;;;;;;;5046128;28;20051;-89
2021/07/12 09:58:18;;;;;;;1.80;1.67;;;;;;;;;;5047722;28;20025;-88
2021/07/12 10:00:46;;;;;;;2.03;1.85;;;;;;;;;;5050051;28;20029;-89
2021/07/12 10:03:12;;;;;;;6.83;2.07;;;;;;;;;;5048948;28;20036;-89
2021/07/12 10:05:37;;;;;;;2.30;2.08;;;;;;;;;;5045377;28;20025;-88
2021/07/12 10:08:04;;;;;;;2.03;1.90;;;;;;;;;;5044790;28;20036;-88
2021/07/12 10:10:30;;;;;;;2.08;1.88;;;;;;;;;;5046492;28;20029;-88
2021/07/12 10:12:55;;;;;;;2.58;2.10;;;;;;;;;;5047886;28;20082;-88
2021/07/12 10:15:21;;;;;;;3.00;1.70;;;;;;;;;;5047412;28;20467;-88
2021/07/12 10:17:48;;;;;;;2.60;2.00;;;;;;;;;;5046247;28;20028;-88
2021/07/12 10:20:15;;;;;;;2.30;2.10;;;;;;;;;;5048914;28;20039;-88
2021/07/12 10:22:42;;;;;;;2.10;1.90;;;;;;;;;;5046442;28;20028;-86
2021/07/12 10:25:17;;;;;;;2.20;2.00;;;;;;;;;;5045149;28;20029;-86
2021/07/12 10:27:59;;;;;;;1.63;1.52;;;;;;;;;;5046138;28;20033;-86
2021/07/12 10:30:32;;;;;;;2.47;1.70;;;;;;;;;;5047883;28;20036;-88
2021/07/12 10:33:04;;;;;;;2.35;1.80;;;;;;;;;;5043824;28;20028;-87
2021/07/12 10:35:44;;;;;;;2.22;1.77;;;;;;;;;;5048051;28;20407;-87
2021/07/12 10:38:15;;;;;;;2.35;1.90;;;;;;;;;;5043199;28;20029;-88
2021/07/12 10:40:44;;;;;;;2.40;1.90;;;;;;;;;;5046108;28;20040;-89
2021/07/12 10:43:10;;;;;;;2.38;1.80;;;;;;;;;;5045437;28;20028;-86
2021/07/12 10:45:38;;;;;;;1.90;1.80;;;;;;;;;;5044272;28;20033;-88
2021/07/12 10:48:12;;;;;;;3.05;1.75;;;;;;;;;;5037312;28;20071;-88
2021/07/12 10:50:44;;;;;;;2.10;1.95;;;;;;;;;;5048765;28;20060;-81
2021/07/12 10:53:15;;;;;;;2.92;1.90;;;;;;;;;;5043526;28;20112;-80
2021/07/12 10:55:46;;;;;;;3.28;1.85;;;;;;;;;;5042553;28;20108;-79
2021/07/12 10:58:26;;;;;;;2.08;1.83;;;;;;;;;;5042233;28;20757;-84
2021/07/12 11:00:57;;;;;;;2.60;1.90;;;;;;;;;;5043660;28;20034;-80
2021/07/12 11:03:40;;;;;;;2.05;1.85;;;;;;;;;;5044191;28;20089;-80
2021/07/12 11:06:07;;;;;;;2.03;1.85;;;;;;;;;;5040200;28;20507;-80
2021/07/12 11:08:50;;;;;;;1.90;1.70;;;;;;;;;;5048140;28;20036;-80
2021/07/12 11:11:18;;;;;;;3.10;1.80;;;;;;;;;;5044481;28;20029;-81
2021/07/12 11:13:59;;;;;;;1.60;1.50;;;;;;;;;;5042695;28;20052;-80
2021/07/12 11:16:46;;;;;;;2.20;2.00;;;;;;;;;;5042777;28;20124;-80
2021/07/12 11:19:32;;;;;;;2.03;1.83;;;;;;;;;;5039350;28;20029;-81
2021/07/12 11:22:12;;;;;;;2.20;2.00;;;;;;;;;;5045070;28;20143;-80
2021/07/12 11:24:38;;;;;;;2.83;1.70;;;;;;;;;;5061123;28;20039;-81
2021/07/12 11:27:05;;;;;;;3.78;2.05;;;;;;;;;;5040641;28;20413;-80
2021/07/12 11:29:33;;;;;;;1.90;1.70;;;;;;;;;;5043285;28;20021;-80
2021/07/12 11:32:07;;;;;;;2.17;1.90;;;;;;;;;;5045337;28;20032;-81
2021/07/12 11:34:42;;;;;;;2.10;1.90;;;;;;;;;;5040930;28;20088;-81
2021/07/12 11:37:28;;;;;;;2.40;2.20;;;;;;;;;;5040602;28;20104;-81
2021/07/12 11:39:59;;;;;;;2.70;1.80;;;;;;;;;;5048259;28;20047;-81
2021/07/12 11:42:31;;;;;;;2.40;2.20;;;;;;;;;;5042512;28;20029;-81
2021/07/12 11:44:59;;;;;;;2.45;1.98;;;;;;;;;;5040844;28;20025;-81
2021/07/12 11:47:37;;;;;;;2.45;1.70;;;;;;;;;;5041483;28;20032;-81
2021/07/12 11:50:11;;;;;;;2.25;2.05;;;;;;;;;;5046389;28;20459;-81
2021/07/12 11:52:38;;;;;;;2.55;1.95;;;;;;;;;;5046121;28;20037;-81
2021/07/12 11:55:08;;;;;;;1.95;1.83;;;;;;;;;;5035658;28;20036;-81
2021/07/12 11:57:36;;;;;;;3.35;2.05;;;;;;;;;;5039800;28;20507;-81
2021/07/12 12:00:04;;;;;;;2.33;2.10;;;;;;;;;;5046143;28;20091;-81
2021/07/12 12:02:29;;;;;;;;;;;;;;;;;;5043240;28;20124;-80
2021/07/12 12:04:59;;;;;;;3.67;2.03;;;;;;;;;;5037390;28;20007;-81
2021/07/12 12:07:26;;;;;;;2.13;1.92;;;;;;;;;;5037829;28;20057;-80
2021/07/12 12:09:53;;;;;;;2.38;2.10;;;;;;;;;;5041598;28;20396;-80
2021/07/12 12:12:23;;;;;;;2.17;1.98;;;;;;;;;;5044678;28;20029;-80
2021/07/12 12:14:48;;;;;;;3.05;2.20;;;;;;;;;;5042807;28;20029;-80
2021/07/12 12:17:14;;;;;;;2.38;1.90;;;;;;;;;;5039600;28;20025;-80
2021/07/12 12:19:39;;;;;;;2.00;1.80;;;;;;;;;;5044189;28;20041;-79
2021/07/12 12:22:05;;;;;;;3.42;2.13;;;;;;;;;;5045202;28;20053;-79
2021/07/12 12:24:30;;;;;;;2.88;2.00;;;;;;;;;;5045824;28;20017;-80
2021/07/12 12:26:56;;;;;;;2.42;2.20;;;;;;;;;;5043208;28;20033;-80
2021/07/12 12:29:21;;;;;;;3.53;2.33;;;;;;;;;;5042566;28;20021;-80
2021/07/12 12:31:47;;;;;;;2.80;2.05;;;;;;;;;;5040937;28;20080;-81
2021/07/12 12:34:17;;;;;;;2.17;1.90;;;;;;;;;;5041717;28;20032;-81
2021/07/12 12:36:43;;;;;;;3.17;2.25;;;;;;;;;;5055693;28;20842;-81
2021/07/12 12:39:13;;;;;;;2.60;2.00;;;;;;;;;;5042087;28;20120;-80
2021/07/12 12:41:46;;;;;;;2.33;2.00;;;;;;;;;;5042637;28;20454;-79
2021/07/12 12:44:14;;;;;;;3.50;2.00;;;;;;;;;;5049894;28;20036;-79
2021/07/12 12:46:53;;;;;;;2.45;1.92;;;;;;;;;;5047971;28;20057;-79
2021/07/12 12:49:29;;;;;;;2.15;1.92;;;;;;;;;;5041695;28;20033;-80
2021/07/12 12:51:57;;;;;;;2.20;2.00;;;;;;;;;;5048101;28;20025;-79
2021/07/12 12:54:30;;;;;;;2.30;2.10;;;;;;;;;;5045687;28;20028;-80
2021/07/12 12:56:58;;;;;;;2.88;1.95;;;;;;;;;;5042114;28;20267;-80
2021/07/12 12:59:34;;;;;;;2.45;2.25;;;;;;;;;;5037829;28;20063;-79
2021/07/12 13:02:06;;;;;;;2.42;2.05;;;;;;;;;;5043352;28;20017;-80
2021/07/12 13:04:49;;;;;;;3.70;2.20;;;;;;;;;;5045663;28;20033;-79
2021/07/12 13:07:26;;;;;;;2.92;2.00;;;;;;;;;;5044583;28;20079;-80
2021/07/12 13:10:11;;;;;;;2.40;2.20;;;;;;;;;;5045229;28;20025;-80
2021/07/12 13:12:45;;;;;;;2.15;1.73;;;;;;;;;;5045232;28;20419;-80
2021/07/12 13:15:13;;;;;;;3.15;1.90;;;;;;;;;;5044032;28;20533;-80
2021/07/12 13:17:39;;;;;;;3.03;2.38;;;;;;;;;;5049921;28;20443;-80
2021/07/12 13:20:14;;;;;;;2.10;1.80;;;;;;;;;;5044155;28;20036;-81
2021/07/12 13:22:52;;;;;;;2.90;2.50;;;;;;;;;;5038955;28;20029;-81
2021/07/12 13:25:23;;;;;;;3.53;2.25;;;;;;;;;;5039471;28;20112;-80
2021/07/12 13:27:55;;;;;;;5.00;2.80;;;;;;;;;;5048400;28;20028;-80
2021/07/12 13:30:23;;;;;;;3.25;2.83;;;;;;;;;;5046836;28;20032;-80
2021/07/12 13:32:49;;;;;;;3.47;2.65;;;;;;;;;;5047236;28;20029;-80
2021/07/12 13:35:22;;;;;;;3.50;2.00;;;;;;;;;;5046775;28;20618;-80
2021/07/12 13:37:49;;;;;;;3.55;2.58;;;;;;;;;;5046376;28;20060;-80
2021/07/12 13:40:16;;;;;;;2.63;2.17;;;;;;;;;;5046921;28;20436;-80
2021/07/12 13:42:41;;;;;;;3.78;2.58;;;;;;;;;;5046796;28;20032;-80
2021/07/12 13:45:08;;;;;;;3.00;2.70;;;;;;;;;;5044550;28;20108;-80
2021/07/12 13:47:33;;;;;;;3.20;2.08;;;;;;;;;;5039495;28;20098;-81
2021/07/12 13:49:59;;;;;;;2.75;2.20;;;;;;;;;;5039749;28;20438;-80
2021/07/12 13:52:24;;;;;;;2.55;2.08;;;;;;;;;;5040518;28;20021;-80
2021/07/12 13:54:50;;;;;;;8.45;2.58;;;;;;;;;;5044809;28;20025;-87
2021/07/12 13:57:16;;;;;;;3.15;1.90;;;;;;;;;;5046601;28;20024;-84
2021/07/12 13:59:43;;;;;;;3.78;2.35;;;;;;;;;;5046097;28;20021;-83
2021/07/12 14:02:15;;;;;;;2.53;2.13;;;;;;;;;;5047323;28;20103;-83
2021/07/12 14:04:42;;;;;;;4.70;2.88;;;;;;;;;;5045725;28;20875;-83
2021/07/12 14:07:09;;;;;;;3.33;2.40;;;;;;;;;;5041332;28;20022;-84
2021/07/12 14:09:35;;;;;;;4.13;2.40;;;;;;;;;;5049022;28;20029;-83
2021/07/12 14:12:01;;;;;;;2.75;2.22;;;;;;;;;;5047361;28;20487;-83
2021/07/12 14:14:27;;;;;;;2.50;2.30;;;;;;;;;;5049031;28;20064;-82
2021/07/12 14:16:52;;;;;;;2.40;2.20;;;;;;;;;;5045857;28;20052;-82
2021/07/12 14:19:18;;;;;;;2.38;2.17;;;;;;;;;;5045858;28;20025;-83
2021/07/12 14:21:43;;;;;;;3.28;2.42;;;;;;;;;;5040133;28;20032;-82
2021/07/12 14:24:09;;;;;;;4.90;2.50;;;;;;;;;;5047778;28;20056;-81
2021/07/12 14:26:35;;;;;;;6.47;2.60;;;;;;;;;;5043923;28;20063;-81
2021/07/12 14:29:01;;;;;;;2.78;2.42;;;;;;;;;;5041767;28;20072;-81
2021/07/12 14:31:26;;;;;;;3.83;2.28;;;;;;;;;;5042999;28;20039;-81
2021/07/12 14:33:52;;;;;;;2.47;2.05;;;;;;;;;;5040127;28;20021;-82
2021/07/12 14:36:17;;;;;;;3.40;2.17;;;;;;;;;;5045160;28;20024;-82
2021/07/12 14:38:44;;;;;;;2.38;2.03;;;;;;;;;;5043165;28;20087;-82
2021/07/12 14:41:10;;;;;;;2.58;2.38;;;;;;;;;;5040562;28;20036;-82
2021/07/12 14:43:37;;;;;;;2.63;2.38;;;;;;;;;;5040255;28;20198;-82
2021/07/12 14:46:03;;;;;;;2.80;2.25;;;;;;;;;;5042775;28;20033;-82
2021/07/12 14:48:29;;;;;;;5.43;2.42;;;;;;;;;;5038322;28;20025;-82
2021/07/12 14:50:54;;;;;;;2.55;2.35;;;;;;;;;;5042861;28;20033;-81
2021/07/12 14:53:20;;;;;;;2.40;2.20;;;;;;;;;;5044984;28;20032;-81